Time,TemperatureF,DewpointF,PressureIn,WindDirection,WindDirectionDegrees,WindSpeedMPH,WindSpeedGustMPH,Humidity,HourlyPrecipIn,Conditions,Clouds,dailyrainin,SoftwareType,DateUTC
2013-09-18 00:02:00,63.7,52.1,30.06,South,180,0.0,0.0,66,0.00,,,0.00,WUHU21623XXSP,2013-09-18 05:02:00,
2013-09-18 00:07:00,63.5,51.9,30.06,ESE,112,0.0,0.0,66,0.00,,,0.00,WUHU21623XXSP,2013-09-18 05:07:00,
2013-09-18 00:12:00,63.5,51.9,30.06,SE,135,0.0,0.0,66,0.00,,,0.00,WUHU21623XXSP,2013-09-18 05:12:00,
2013-09-18 00:17:00,63.3,51.9,30.06,ESE,112,0.0,0.0,66,0.00,,,0.00,WUHU21623XXSP,2013-09-18 05:17:00,
2013-09-18 00:22:00,63.3,52.1,30.07,South,180,0.0,0.0,67,0.00,,,0.00,WUHU21623XXSP,2013-09-18 05:22:00,
2013-09-18 00:27:00,63.3,52.1,30.06,South,180,0.0,0.0,67,0.00,,,0.00,WUHU21623XXSP,2013-09-18 05:27:00,
2013-09-18 00:31:00,63.1,52.0,30.07,SSE,157,0.0,0.0,67,0.00,,,0.00,WUHU21623XXSP,2013-09-18 05:31:00,
2013-09-18 00:36:00,63.3,52.1,30.06,SSE,157,0.0,0.0,67,0.00,,,0.00,WUHU21623XXSP,2013-09-18 05:36:00,
2013-09-18 00:41:00,63.3,52.1,30.07,South,180,0.0,0.0,67,0.00,,,0.00,WUHU21623XXSP,2013-09-18 05:41:00,
2013-09-18 00:46:00,63.0,51.8,30.06,SSW,202,0.0,0.0,67,0.00,,,0.00,WUHU21623XXSP,2013-09-18 05:46:00,
2013-09-18 00:51:00,63.0,51.8,30.06,South,180,0.0,0.0,67,0.00,,,0.00,WUHU21623XXSP,2013-09-18 05:51:00,
2013-09-18 00:56:00,63.0,51.8,30.06,SSE,157,0.0,0.0,67,0.00,,,0.00,WUHU21623XXSP,2013-09-18 05:56:00,
2013-09-18 01:01:00,63.0,51.8,30.07,SE,135,0.0,0.0,67,0.00,,,0.00,WUHU21623XXSP,2013-09-18 06:01:00,
2013-09-18 01:06:00,63.0,51.8,30.07,SE,135,0.0,0.0,67,0.00,,,0.00,WUHU21623XXSP,2013-09-18 06:06:00,
2013-09-18 01:11:00,62.8,51.6,30.07,South,180,0.0,0.0,67,0.00,,,0.00,WUHU21623XXSP,2013-09-18 06:11:00,
2013-09-18 01:16:00,63.0,51.8,30.07,South,180,0.0,0.0,67,0.00,,,0.00,WUHU21623XXSP,2013-09-18 06:16:00,
2013-09-18 01:21:00,62.8,51.6,30.06,SSE,157,0.0,0.0,67,0.00,,,0.00,WUHU21623XXSP,2013-09-18 06:21:00,
2013-09-18 01:26:00,62.8,51.6,30.06,SSE,157,0.0,0.0,67,0.00,,,0.00,WUHU21623XXSP,2013-09-18 06:26:00,
2013-09-18 01:31:00,62.8,51.6,30.06,SSW,202,1.1,1.1,68,0.00,,,0.00,WUHU21623XXSP,2013-09-18 06:31:00,
2013-09-18 01:36:00,62.8,52.0,30.06,SSW,202,1.1,1.1,68,0.00,,,0.00,WUHU21623XXSP,2013-09-18 06:36:00,
2013-09-18 01:41:00,62.6,52.0,30.06,SSW,202,0.0,1.1,68,0.00,,,0.00,WUHU21623XXSP,2013-09-18 06:41:00,
2013-09-18 01:46:00,62.6,51.9,30.06,SSW,202,0.0,1.1,68,0.00,,,0.00,WUHU21623XXSP,2013-09-18 06:46:00,
2013-09-18 01:51:00,62.6,51.9,30.06,SSW,202,0.0,0.0,68,0.00,,,0.00,WUHU21623XXSP,2013-09-18 06:51:00,
2013-09-18 01:56:00,62.4,51.7,30.06,SSW,202,0.0,0.0,68,0.00,,,0.00,WUHU21623XXSP,2013-09-18 06:56:00,
2013-09-18 02:01:00,62.4,51.7,30.06,SSE,157,0.0,0.0,68,0.00,,,0.00,WUHU21623XXSP,2013-09-18 07:01:00,
2013-09-18 02:06:00,62.6,51.9,30.06,ESE,112,0.0,0.0,68,0.00,,,0.00,WUHU21623XXSP,2013-09-18 07:06:00,
2013-09-18 02:11:00,62.4,51.7,30.06,ESE,112,0.0,0.0,68,0.00,,,0.00,WUHU21623XXSP,2013-09-18 07:11:00,
2013-09-18 02:16:00,62.4,51.7,30.06,SE,135,0.0,0.0,68,0.00,,,0.00,WUHU21623XXSP,2013-09-18 07:16:00,
2013-09-18 02:21:00,62.2,52.0,30.06,South,180,0.0,0.0,69,0.00,,,0.00,WUHU21623XXSP,2013-09-18 07:21:00,
2013-09-18 02:26:00,62.2,52.0,30.06,SSE,157,0.0,0.0,69,0.00,,,0.00,WUHU21623XXSP,2013-09-18 07:26:00,
2013-09-18 02:31:00,62.4,52.1,30.05,ESE,112,0.0,0.0,69,0.00,,,0.00,WUHU21623XXSP,2013-09-18 07:31:00,
2013-09-18 02:36:00,62.4,52.0,30.05,SE,135,0.0,0.0,69,0.00,,,0.00,WUHU21623XXSP,2013-09-18 07:36:00,
2013-09-18 02:41:00,62.2,52.0,30.05,SSE,157,0.0,0.0,69,0.00,,,0.00,WUHU21623XXSP,2013-09-18 07:41:00,
2013-09-18 02:46:00,62.2,52.0,30.05,South,180,0.0,0.0,69,0.00,,,0.00,WUHU21623XXSP,2013-09-18 07:46:00,
2013-09-18 02:51:00,62.2,52.0,30.05,SE,135,0.0,0.0,69,0.00,,,0.00,WUHU21623XXSP,2013-09-18 07:51:00,
2013-09-18 02:56:00,62.2,52.0,30.05,SW,225,0.0,0.0,69,0.00,,,0.00,WUHU21623XXSP,2013-09-18 07:56:00,
2013-09-18 03:01:00,62.2,52.0,30.05,SE,135,0.0,0.0,69,0.00,,,0.00,WUHU21623XXSP,2013-09-18 08:01:00,
2013-09-18 03:06:00,62.4,52.1,30.05,South,180,0.0,0.0,69,0.00,,,0.00,WUHU21623XXSP,2013-09-18 08:06:00,
2013-09-18 03:11:00,62.2,52.0,30.05,SSW,202,0.0,0.0,69,0.00,,,0.00,WUHU21623XXSP,2013-09-18 08:11:00,
2013-09-18 03:16:00,62.2,52.0,30.05,SE,135,0.0,0.0,69,0.00,,,0.00,WUHU21623XXSP,2013-09-18 08:16:00,
2013-09-18 03:21:00,62.2,52.0,30.05,SSE,157,0.0,0.0,69,0.00,,,0.00,WUHU21623XXSP,2013-09-18 08:21:00,
2013-09-18 03:26:00,62.2,52.0,30.04,SE,135,0.0,0.0,69,0.00,,,0.00,WUHU21623XXSP,2013-09-18 08:26:00,
2013-09-18 03:31:00,62.4,52.5,30.04,SE,135,0.0,0.0,70,0.00,,,0.00,WUHU21623XXSP,2013-09-18 08:31:00,
2013-09-18 03:36:00,62.2,52.4,30.04,SE,135,0.0,0.0,70,0.00,,,0.00,WUHU21623XXSP,2013-09-18 08:36:00,
2013-09-18 03:41:00,62.2,52.4,30.04,SSW,202,0.0,0.0,70,0.00,,,0.00,WUHU21623XXSP,2013-09-18 08:41:00,
2013-09-18 03:46:00,62.2,52.4,30.04,South,180,0.0,0.0,70,0.00,,,0.00,WUHU21623XXSP,2013-09-18 08:46:00,
2013-09-18 03:51:00,62.2,52.4,30.04,SSE,157,0.0,0.0,70,0.00,,,0.00,WUHU21623XXSP,2013-09-18 08:51:00,
2013-09-18 03:56:00,62.2,52.4,30.04,SSE,157,0.0,0.0,70,0.00,,,0.00,WUHU21623XXSP,2013-09-18 08:56:00,
2013-09-18 04:01:00,62.2,52.4,30.04,SSE,157,0.0,0.0,70,0.00,,,0.00,WUHU21623XXSP,2013-09-18 09:01:00,
2013-09-18 04:06:00,62.2,52.4,30.04,SE,135,0.0,0.0,70,0.00,,,0.00,WUHU21623XXSP,2013-09-18 09:06:00,
2013-09-18 04:11:00,62.2,52.4,30.03,SE,135,0.0,0.0,70,0.00,,,0.00,WUHU21623XXSP,2013-09-18 09:11:00,
2013-09-18 04:16:00,62.2,52.4,30.03,SE,135,0.0,0.0,70,0.00,,,0.00,WUHU21623XXSP,2013-09-18 09:16:00,
2013-09-18 04:21:00,62.2,52.0,30.03,South,180,0.0,0.0,69,0.00,,,0.00,WUHU21623XXSP,2013-09-18 09:21:00,
2013-09-18 04:26:00,62.2,52.0,30.03,SE,135,0.0,0.0,69,0.00,,,0.00,WUHU21623XXSP,2013-09-18 09:26:00,
2013-09-18 04:31:00,62.2,52.0,30.03,SSE,157,0.0,0.0,69,0.00,,,0.00,WUHU21623XXSP,2013-09-18 09:31:00,
2013-09-18 04:36:00,62.2,52.0,30.03,SSE,157,0.0,0.0,69,0.00,,,0.00,WUHU21623XXSP,2013-09-18 09:36:00,
2013-09-18 04:41:00,62.2,52.0,30.03,South,180,0.0,3.1,69,0.00,,,0.00,WUHU21623XXSP,2013-09-18 09:41:00,
2013-09-18 04:46:00,62.2,52.0,30.03,SSE,157,0.0,3.1,69,0.00,,,0.00,WUHU21623XXSP,2013-09-18 09:46:00,
2013-09-18 04:51:00,62.4,52.1,30.03,South,180,0.0,0.0,69,0.00,,,0.00,WUHU21623XXSP,2013-09-18 09:51:00,
2013-09-18 04:56:00,62.2,52.0,30.03,South,180,0.0,0.0,69,0.00,,,0.00,WUHU21623XXSP,2013-09-18 09:56:00,
2013-09-18 05:01:00,62.2,52.0,30.03,SSE,157,0.0,0.0,69,0.00,,,0.00,WUHU21623XXSP,2013-09-18 10:01:00,
2013-09-18 05:06:00,62.2,52.0,30.02,South,180,0.0,0.0,69,0.00,,,0.00,WUHU21623XXSP,2013-09-18 10:06:00,
2013-09-18 05:11:00,62.2,52.0,30.02,SE,135,0.0,0.0,69,0.00,,,0.00,WUHU21623XXSP,2013-09-18 10:11:00,
2013-09-18 05:16:00,62.2,52.0,30.02,SSE,157,0.0,0.0,69,0.00,,,0.00,WUHU21623XXSP,2013-09-18 10:16:00,
2013-09-18 05:21:00,62.2,52.4,30.02,ESE,112,0.0,0.0,70,0.00,,,0.00,WUHU21623XXSP,2013-09-18 10:21:00,
2013-09-18 05:26:00,62.2,52.4,30.02,South,180,1.1,1.1,70,0.00,,,0.00,WUHU21623XXSP,2013-09-18 10:26:00,
2013-09-18 05:31:00,62.2,52.4,30.02,SE,135,0.0,1.1,70,0.00,,,0.00,WUHU21623XXSP,2013-09-18 10:31:00,
2013-09-18 05:36:00,62.2,52.4,30.02,South,180,0.0,0.0,70,0.00,,,0.00,WUHU21623XXSP,2013-09-18 10:36:00,
2013-09-18 05:41:00,62.2,52.4,30.02,SSE,157,0.0,0.0,70,0.00,,,0.00,WUHU21623XXSP,2013-09-18 10:41:00,
2013-09-18 05:46:00,62.2,52.4,30.01,SSE,157,0.0,0.0,70,0.00,,,0.00,WUHU21623XXSP,2013-09-18 10:46:00,
2013-09-18 05:51:00,62.2,52.4,30.01,South,180,0.0,0.0,70,0.00,,,0.00,WUHU21623XXSP,2013-09-18 10:51:00,
2013-09-18 05:56:00,62.2,52.4,30.01,SE,135,0.0,0.0,70,0.00,,,0.00,WUHU21623XXSP,2013-09-18 10:56:00,
2013-09-18 06:01:00,62.2,52.4,30.01,SSE,157,0.0,0.0,70,0.00,,,0.00,WUHU21623XXSP,2013-09-18 11:01:00,
2013-09-18 06:06:00,62.2,52.4,30.01,SSE,157,0.0,0.0,70,0.00,,,0.00,WUHU21623XXSP,2013-09-18 11:06:00,
2013-09-18 06:11:00,62.1,52.2,30.01,SW,225,2.0,2.0,70,0.00,,,0.00,WUHU21623XXSP,2013-09-18 11:11:00,
2013-09-18 06:16:00,62.1,52.2,30.01,SSE,157,0.0,2.0,70,0.00,,,0.00,WUHU21623XXSP,2013-09-18 11:16:00,
2013-09-18 06:21:00,61.9,52.1,30.01,ESE,112,0.0,0.0,70,0.00,,,0.00,WUHU21623XXSP,2013-09-18 11:21:00,
2013-09-18 06:26:00,61.7,52.3,30.01,SE,135,0.0,0.0,71,0.00,,,0.00,WUHU21623XXSP,2013-09-18 11:26:00,
2013-09-18 06:31:00,61.7,52.3,30.02,ESE,112,0.0,0.0,71,0.00,,,0.00,WUHU21623XXSP,2013-09-18 11:31:00,
2013-09-18 06:36:00,61.5,52.1,30.02,South,180,0.0,0.0,71,0.00,,,0.00,WUHU21623XXSP,2013-09-18 11:36:00,
2013-09-18 06:41:00,61.3,52.3,30.02,ESE,112,0.0,0.0,72,0.00,,,0.00,WUHU21623XXSP,2013-09-18 11:41:00,
2013-09-18 06:46:00,61.3,52.4,30.02,SSE,157,0.0,0.0,72,0.00,,,0.00,WUHU21623XXSP,2013-09-18 11:46:00,
2013-09-18 06:51:00,61.5,52.8,30.02,WSW,247,0.0,0.0,73,0.00,,,0.00,WUHU21623XXSP,2013-09-18 11:51:00,
2013-09-18 06:56:00,61.5,52.8,30.02,South,180,0.7,0.7,73,0.00,,,0.00,WUHU21623XXSP,2013-09-18 11:56:00,
2013-09-18 07:01:00,61.5,52.8,30.02,ESE,112,0.0,0.7,73,0.00,,,0.00,WUHU21623XXSP,2013-09-18 12:01:00,
2013-09-18 07:06:00,61.5,52.8,30.02,South,180,0.0,0.9,73,0.00,,,0.00,WUHU21623XXSP,2013-09-18 12:06:00,
2013-09-18 07:11:00,61.5,53.2,30.02,South,180,0.0,0.9,74,0.00,,,0.00,WUHU21623XXSP,2013-09-18 12:11:00,
2013-09-18 07:16:00,61.5,53.2,30.02,South,180,0.0,0.0,74,0.00,,,0.00,WUHU21623XXSP,2013-09-18 12:16:00,
2013-09-18 07:21:00,61.5,52.8,30.02,SE,135,0.0,0.7,73,0.00,,,0.00,WUHU21623XXSP,2013-09-18 12:21:00,
2013-09-18 07:26:00,61.5,53.2,30.02,SE,135,0.0,0.7,74,0.00,,,0.00,WUHU21623XXSP,2013-09-18 12:26:00,
2013-09-18 07:31:00,61.7,53.0,30.02,SSE,157,0.0,0.0,73,0.00,,,0.00,WUHU21623XXSP,2013-09-18 12:31:00,
2013-09-18 07:36:00,61.7,53.0,30.02,South,180,0.0,0.0,73,0.00,,,0.00,WUHU21623XXSP,2013-09-18 12:36:00,
2013-09-18 07:41:00,61.9,53.1,30.02,South,180,0.0,0.0,73,0.00,,,0.00,WUHU21623XXSP,2013-09-18 12:41:00,
2013-09-18 07:46:00,61.7,53.0,30.02,SSE,157,0.0,0.0,73,0.00,,,0.00,WUHU21623XXSP,2013-09-18 12:46:00,
2013-09-18 07:51:00,61.9,53.5,30.01,SE,135,0.0,0.0,74,0.00,,,0.00,WUHU21623XXSP,2013-09-18 12:51:00,
2013-09-18 07:56:00,61.9,53.5,30.01,SSW,202,0.9,0.9,74,0.00,,,0.00,WUHU21623XXSP,2013-09-18 12:56:00,
2013-09-18 08:01:00,62.1,53.7,30.01,South,180,0.0,0.9,74,0.00,,,0.00,WUHU21623XXSP,2013-09-18 13:01:00,
2013-09-18 08:06:00,62.1,53.7,30.01,SSW,202,0.0,0.0,74,0.00,,,0.00,WUHU21623XXSP,2013-09-18 13:06:00,
2013-09-18 08:11:00,62.2,53.8,30.01,SSE,157,0.0,0.0,74,0.00,,,0.00,WUHU21623XXSP,2013-09-18 13:11:00,
2013-09-18 08:16:00,62.8,54.7,30.01,South,180,0.0,0.0,75,0.00,,,0.00,WUHU21623XXSP,2013-09-18 13:16:00,
2013-09-18 08:21:00,63.3,55.2,30.01,SE,135,3.4,3.4,75,0.00,,,0.00,WUHU21623XXSP,2013-09-18 13:21:00,
2013-09-18 08:26:00,63.9,55.4,30.01,SSE,157,0.0,3.4,74,0.00,,,0.00,WUHU21623XXSP,2013-09-18 13:26:00,
2013-09-18 08:31:00,64.0,55.6,30.01,South,180,0.0,0.0,74,0.00,,,0.00,WUHU21623XXSP,2013-09-18 13:31:00,
2013-09-18 08:36:00,64.4,55.6,30.00,South,180,0.0,0.0,73,0.00,,,0.00,WUHU21623XXSP,2013-09-18 13:36:00,
2013-09-18 08:41:00,64.8,55.9,30.00,East,90,0.7,0.7,73,0.00,,,0.00,WUHU21623XXSP,2013-09-18 13:41:00,
2013-09-18 08:46:00,65.1,56.2,30.00,South,180,2.2,2.2,73,0.00,,,0.00,WUHU21623XXSP,2013-09-18 13:46:00,
2013-09-18 08:51:00,65.7,56.0,30.00,South,180,0.0,2.2,71,0.00,,,0.00,WUHU21623XXSP,2013-09-18 13:51:00,
2013-09-18 08:56:00,65.8,56.2,30.00,SE,135,0.0,0.0,71,0.00,,,0.00,WUHU21623XXSP,2013-09-18 13:56:00,
2013-09-18 09:01:00,66.4,56.7,30.00,SSE,157,2.0,2.0,71,0.00,,,0.00,WUHU21623XXSP,2013-09-18 14:01:00,
2013-09-18 09:07:00,66.9,57.2,30.00,SSE,157,0.7,2.0,71,0.00,,,0.00,WUHU21623XXSP,2013-09-18 14:07:00,
2013-09-18 09:12:00,67.5,57.4,30.00,SSE,157,2.7,2.7,70,0.00,,,0.00,WUHU21623XXSP,2013-09-18 14:12:00,
2013-09-18 09:17:00,68.2,58.1,30.00,South,180,0.0,2.7,70,0.00,,,0.00,WUHU21623XXSP,2013-09-18 14:17:00,
2013-09-18 09:22:00,68.4,58.2,30.00,SSE,157,0.0,1.8,70,0.00,,,0.00,WUHU21623XXSP,2013-09-18 14:22:00,
2013-09-18 09:27:00,68.7,58.6,30.00,SSE,157,0.0,1.8,70,0.00,,,0.00,WUHU21623XXSP,2013-09-18 14:27:00,
2013-09-18 09:32:00,69.4,58.8,30.00,WSW,247,0.0,0.0,69,0.00,,,0.00,WUHU21623XXSP,2013-09-18 14:32:00,
2013-09-18 09:37:00,70.0,58.9,30.00,ESE,112,0.0,0.0,68,0.00,,,0.00,WUHU21623XXSP,2013-09-18 14:37:00,
2013-09-18 09:42:00,70.2,59.1,30.00,South,180,1.3,1.3,68,0.00,,,0.00,WUHU21623XXSP,2013-09-18 14:42:00,
2013-09-18 09:47:00,70.5,59.4,30.00,SW,225,0.0,2.7,68,0.00,,,0.00,WUHU21623XXSP,2013-09-18 14:47:00,
2013-09-18 09:52:00,70.7,58.7,30.01,SE,135,2.5,2.7,66,0.00,,,0.00,WUHU21623XXSP,2013-09-18 14:52:00,
2013-09-18 09:57:00,71.1,59.1,30.00,SW,225,2.0,2.5,66,0.00,,,0.00,WUHU21623XXSP,2013-09-18 14:57:00,
2013-09-18 10:02:00,71.4,59.4,30.00,SSE,157,0.0,2.0,66,0.00,,,0.00,WUHU21623XXSP,2013-09-18 15:02:00,
2013-09-18 10:07:00,71.8,59.8,30.00,SSW,202,0.0,4.5,66,0.00,,,0.00,WUHU21623XXSP,2013-09-18 15:07:00,
2013-09-18 10:12:00,72.0,60.0,30.00,West,270,0.0,4.5,66,0.00,,,0.00,WUHU21623XXSP,2013-09-18 15:12:00,
2013-09-18 10:17:00,72.0,60.0,30.00,South,180,0.0,0.9,66,0.00,,,0.00,WUHU21623XXSP,2013-09-18 15:17:00,
2013-09-18 10:22:00,72.0,60.0,30.00,SE,135,2.7,2.7,66,0.00,,,0.00,WUHU21623XXSP,2013-09-18 15:22:00,
2013-09-18 10:27:00,72.0,59.3,30.00,SSW,202,0.0,2.7,65,0.00,,,0.00,WUHU21623XXSP,2013-09-18 15:27:00,
2013-09-18 10:32:00,71.8,59.8,30.00,South,180,0.0,1.8,66,0.00,,,0.00,WUHU21623XXSP,2013-09-18 15:32:00,
2013-09-18 10:37:00,71.8,59.8,30.00,SW,225,0.0,0.0,66,0.00,,,0.00,WUHU21623XXSP,2013-09-18 15:37:00,
2013-09-18 10:42:00,71.4,59.4,30.00,SSW,202,0.0,0.0,66,0.00,,,0.00,WUHU21623XXSP,2013-09-18 15:42:00,
2013-09-18 10:47:00,71.4,59.4,30.01,SSW,202,0.0,0.0,66,0.00,,,0.00,WUHU21623XXSP,2013-09-18 15:47:00,
2013-09-18 10:52:00,71.2,59.7,30.01,SSW,202,1.8,1.8,67,0.00,,,0.00,WUHU21623XXSP,2013-09-18 15:52:00,
2013-09-18 10:57:00,71.2,59.7,30.01,WSW,247,0.0,1.8,67,0.00,,,0.00,WUHU21623XXSP,2013-09-18 15:57:00,
2013-09-18 11:01:00,71.2,59.7,30.01,SSW,202,0.0,0.7,67,0.00,,,0.00,WUHU21623XXSP,2013-09-18 16:01:00,
2013-09-18 11:06:00,71.1,59.5,30.01,SSE,157,0.0,0.0,67,0.00,,,0.00,WUHU21623XXSP,2013-09-18 16:06:00,
2013-09-18 11:11:00,71.1,59.9,30.01,SSW,202,0.0,0.0,68,0.00,,,0.00,WUHU21623XXSP,2013-09-18 16:11:00,
2013-09-18 11:16:00,70.9,59.8,30.01,SSW,202,0.0,0.0,68,0.00,,,0.00,WUHU21623XXSP,2013-09-18 16:16:00,
2013-09-18 11:21:00,70.7,59.6,30.01,SSW,202,0.0,0.0,68,0.00,,,0.00,WUHU21623XXSP,2013-09-18 16:21:00,
2013-09-18 11:26:00,70.7,60.0,30.01,SSW,202,0.0,0.0,69,0.00,,,0.00,WUHU21623XXSP,2013-09-18 16:26:00,
2013-09-18 11:31:00,70.7,60.4,30.01,SSW,202,0.0,0.0,70,0.00,,,0.00,WUHU21623XXSP,2013-09-18 16:31:00,
2013-09-18 11:36:00,70.5,60.3,30.01,WNW,292,0.0,0.0,70,0.00,,,0.00,WUHU21623XXSP,2013-09-18 16:36:00,
2013-09-18 11:41:00,70.3,60.1,30.01,WSW,247,0.0,0.0,70,0.00,,,0.00,WUHU21623XXSP,2013-09-18 16:41:00,
2013-09-18 11:46:00,70.2,60.3,30.01,West,270,0.0,0.0,71,0.00,,,0.00,WUHU21623XXSP,2013-09-18 16:46:00,
2013-09-18 11:51:00,70.2,60.3,30.01,West,270,0.0,0.0,71,0.00,,,0.00,WUHU21623XXSP,2013-09-18 16:51:00,
2013-09-18 11:57:00,70.0,60.5,30.01,West,270,0.0,0.0,72,0.00,,,0.00,WUHU21623XXSP,2013-09-18 16:57:00,
2013-09-18 12:02:00,69.8,60.3,30.01,West,270,0.0,0.0,72,0.00,,,0.00,WUHU21623XXSP,2013-09-18 17:02:00,
2013-09-18 12:07:00,69.8,60.3,30.01,West,270,0.0,0.0,72,0.00,,,0.00,WUHU21623XXSP,2013-09-18 17:07:00,
2013-09-18 12:12:00,69.4,60.4,30.00,West,270,0.0,0.0,73,0.00,,,0.00,WUHU21623XXSP,2013-09-18 17:12:00,
2013-09-18 12:17:00,69.1,60.0,29.99,West,270,0.0,0.0,73,0.00,,,0.00,WUHU21623XXSP,2013-09-18 17:17:00,
2013-09-18 12:22:00,69.1,60.4,30.00,West,270,0.0,0.0,74,0.00,,,0.00,WUHU21623XXSP,2013-09-18 17:22:00,
2013-09-18 12:27:00,68.7,60.5,30.01,West,270,0.0,0.0,75,0.00,,,0.00,WUHU21623XXSP,2013-09-18 17:27:00,
2013-09-18 12:32:00,68.7,60.8,30.01,SW,225,0.0,0.0,76,0.00,,,0.00,WUHU21623XXSP,2013-09-18 17:32:00,
2013-09-18 12:37:00,68.5,61.1,30.00,SW,225,0.0,0.0,77,0.00,,,0.00,WUHU21623XXSP,2013-09-18 17:37:00,
2013-09-18 12:42:00,68.4,61.3,30.02,SW,225,0.0,0.0,78,0.00,,,0.00,WUHU21623XXSP,2013-09-18 17:42:00,
2013-09-18 12:47:00,68.2,61.1,30.01,SW,225,0.0,0.0,78,0.02,,,0.02,WUHU21623XXSP,2013-09-18 17:47:00,
2013-09-18 12:52:00,68.0,61.3,30.01,SW,225,0.0,0.0,79,0.02,,,0.02,WUHU21623XXSP,2013-09-18 17:52:00,
2013-09-18 12:57:00,67.8,61.1,30.01,WSW,247,0.0,0.0,79,0.04,,,0.04,WUHU21623XXSP,2013-09-18 17:57:00,
2013-09-18 13:02:00,67.8,61.1,30.01,WSW,247,0.0,0.0,79,0.04,,,0.04,WUHU21623XXSP,2013-09-18 18:02:00,
2013-09-18 13:07:00,67.6,61.3,30.00,South,180,0.0,0.0,80,0.06,,,0.06,WUHU21623XXSP,2013-09-18 18:07:00,
2013-09-18 13:12:00,67.5,61.2,30.00,SSE,157,0.0,0.0,80,0.06,,,0.06,WUHU21623XXSP,2013-09-18 18:12:00,
2013-09-18 13:17:00,67.3,61.3,29.99,SE,135,0.0,0.0,81,0.06,,,0.06,WUHU21623XXSP,2013-09-18 18:17:00,
2013-09-18 13:23:00,67.1,61.4,29.99,SSW,202,0.0,0.0,82,0.08,,,0.08,WUHU21623XXSP,2013-09-18 18:23:00,
2013-09-18 13:28:00,67.1,61.3,29.99,SSW,202,0.0,0.0,84,0.08,,,0.08,WUHU21623XXSP,2013-09-18 18:28:00,
2013-09-18 13:33:00,67.1,61.8,29.98,ESE,112,0.0,0.0,83,0.08,,,0.08,WUHU21623XXSP,2013-09-18 18:33:00,
2013-09-18 13:38:00,66.9,62.2,29.96,ESE,112,0.0,0.2,85,0.08,,,0.08,WUHU21623XXSP,2013-09-18 18:38:00,
2013-09-18 13:43:00,66.9,61.9,29.97,WSW,247,0.0,0.2,84,0.08,,,0.08,WUHU21623XXSP,2013-09-18 18:43:00,
2013-09-18 13:48:00,66.9,62.6,29.98,WSW,247,0.0,0.0,86,0.06,,,0.08,WUHU21623XXSP,2013-09-18 18:48:00,
2013-09-18 13:53:00,67.1,62.4,29.98,WSW,247,0.0,0.0,85,0.04,,,0.08,WUHU21623XXSP,2013-09-18 18:53:00,
2013-09-18 13:58:00,66.9,62.9,29.97,East,90,0.0,0.0,87,0.04,,,0.08,WUHU21623XXSP,2013-09-18 18:58:00,
2013-09-18 14:03:00,67.1,63.1,29.93,SE,135,1.1,1.1,87,0.04,,,0.10,WUHU21623XXSP,2013-09-18 19:03:00,
2013-09-18 14:08:00,67.1,63.4,29.91,ESE,112,2.9,4.3,88,0.04,,,0.10,WUHU21623XXSP,2013-09-18 19:08:00,
2013-09-18 14:13:00,67.3,63.6,29.91,ESE,112,1.3,4.3,88,0.06,,,0.12,WUHU21623XXSP,2013-09-18 19:13:00,
2013-09-18 14:18:00,67.5,64.1,29.92,South,180,0.0,1.3,89,0.04,,,0.12,WUHU21623XXSP,2013-09-18 19:18:00,
2013-09-18 14:23:00,68.2,64.8,29.91,SE,135,0.0,0.0,89,0.04,,,0.12,WUHU21623XXSP,2013-09-18 19:23:00,
2013-09-18 14:28:00,68.4,65.3,29.92,South,180,0.0,0.0,90,0.04,,,0.12,WUHU21623XXSP,2013-09-18 19:28:00,
2013-09-18 14:33:00,68.7,66.0,29.92,SSE,157,0.7,0.7,91,0.04,,,0.12,WUHU21623XXSP,2013-09-18 19:33:00,
2013-09-18 14:38:00,69.1,66.0,29.92,SSW,202,0.0,0.7,90,0.04,,,0.12,WUHU21623XXSP,2013-09-18 19:38:00,
2013-09-18 14:43:00,69.8,66.7,29.92,SSW,202,2.0,2.5,90,0.04,,,0.12,WUHU21623XXSP,2013-09-18 19:43:00,
2013-09-18 14:48:00,70.0,67.2,29.92,South,180,0.0,2.5,91,0.04,,,0.12,WUHU21623XXSP,2013-09-18 19:48:00,
2013-09-18 14:53:00,70.2,67.4,29.92,SSE,157,0.0,0.0,91,0.04,,,0.12,WUHU21623XXSP,2013-09-18 19:53:00,
2013-09-18 14:58:00,70.5,67.5,29.92,SE,135,0.4,1.8,90,0.04,,,0.12,WUHU21623XXSP,2013-09-18 19:58:00,
2013-09-18 15:03:00,70.9,67.5,29.92,SSE,157,0.0,4.5,89,0.02,,,0.12,WUHU21623XXSP,2013-09-18 20:03:00,
2013-09-18 15:08:00,71.1,67.3,29.91,SSE,157,0.0,4.5,88,0.02,,,0.12,WUHU21623XXSP,2013-09-18 20:08:00,
2013-09-18 15:13:00,71.2,67.2,29.91,SSW,202,0.0,0.0,87,0.00,,,0.12,WUHU21623XXSP,2013-09-18 20:13:00,
2013-09-18 15:18:00,71.4,67.3,29.91,SE,135,1.3,1.3,87,0.00,,,0.12,WUHU21623XXSP,2013-09-18 20:18:00,
2013-09-18 15:23:00,71.8,67.4,29.91,SE,135,0.0,1.3,86,0.00,,,0.12,WUHU21623XXSP,2013-09-18 20:23:00,
2013-09-18 15:28:00,72.3,67.9,29.90,SE,135,0.0,0.0,86,0.00,,,0.12,WUHU21623XXSP,2013-09-18 20:28:00,
2013-09-18 15:33:00,72.7,67.6,29.90,ESE,112,0.0,0.0,84,0.00,,,0.12,WUHU21623XXSP,2013-09-18 20:33:00,
2013-09-18 15:38:00,73.0,67.2,29.90,SE,135,0.0,1.3,82,0.00,,,0.12,WUHU21623XXSP,2013-09-18 20:38:00,
2013-09-18 15:43:00,73.4,67.3,29.90,ESE,112,0.0,1.3,81,0.00,,,0.12,WUHU21623XXSP,2013-09-18 20:43:00,
2013-09-18 15:48:00,73.6,67.4,29.90,WSW,247,0.0,0.2,81,0.00,,,0.12,WUHU21623XXSP,2013-09-18 20:48:00,
2013-09-18 15:53:00,74.1,67.6,29.90,SW,225,0.0,0.2,80,0.00,,,0.12,WUHU21623XXSP,2013-09-18 20:53:00,
2013-09-18 15:58:00,74.3,67.2,29.90,ESE,112,0.0,0.0,79,0.00,,,0.12,WUHU21623XXSP,2013-09-18 20:58:00,
2013-09-18 16:03:00,74.5,67.2,29.89,SSE,157,0.2,0.2,78,0.00,,,0.12,WUHU21623XXSP,2013-09-18 21:03:00,
2013-09-18 16:08:00,75.2,67.5,29.89,SE,135,0.0,0.2,77,0.00,,,0.12,WUHU21623XXSP,2013-09-18 21:08:00,
2013-09-18 16:13:00,75.6,67.5,29.89,SSE,157,0.0,3.1,76,0.00,,,0.12,WUHU21623XXSP,2013-09-18 21:13:00,
2013-09-18 16:18:00,75.7,66.8,29.89,SE,135,0.9,3.1,74,0.00,,,0.12,WUHU21623XXSP,2013-09-18 21:18:00,
2013-09-18 16:23:00,76.1,66.4,29.89,SSE,157,0.0,2.7,72,0.00,,,0.12,WUHU21623XXSP,2013-09-18 21:23:00,
2013-09-18 16:29:00,76.5,66.8,29.89,SE,135,0.0,2.7,72,0.00,,,0.12,WUHU21623XXSP,2013-09-18 21:29:00,
2013-09-18 16:33:00,76.5,66.4,29.89,WNW,292,0.0,1.6,71,0.00,,,0.12,WUHU21623XXSP,2013-09-18 21:33:00,
2013-09-18 16:38:00,76.6,66.2,29.88,SSW,202,0.0,1.6,70,0.00,,,0.12,WUHU21623XXSP,2013-09-18 21:38:00,
2013-09-18 16:43:00,76.5,66.0,29.88,South,180,9.8,9.8,70,0.00,,,0.12,WUHU21623XXSP,2013-09-18 21:43:00,
2013-09-18 16:48:00,76.6,66.2,29.88,SSE,157,1.8,9.8,70,0.00,,,0.12,WUHU21623XXSP,2013-09-18 21:48:00,
2013-09-18 16:53:00,76.8,66.4,29.88,South,180,0.0,5.1,70,0.00,,,0.12,WUHU21623XXSP,2013-09-18 21:53:00,
2013-09-18 16:59:00,76.8,65.9,29.88,SSE,157,0.0,5.1,69,0.00,,,0.12,WUHU21623XXSP,2013-09-18 21:59:00,
2013-09-18 17:04:00,77.2,66.3,29.88,SSE,157,0.0,3.6,69,0.00,,,0.12,WUHU21623XXSP,2013-09-18 22:04:00,
2013-09-18 17:09:00,77.2,66.3,29.88,SE,135,0.7,0.7,69,0.00,,,0.12,WUHU21623XXSP,2013-09-18 22:09:00,
2013-09-18 17:14:00,77.2,65.8,29.88,SSE,157,0.0,0.7,68,0.00,,,0.12,WUHU21623XXSP,2013-09-18 22:14:00,
2013-09-18 17:19:00,77.2,66.3,29.88,WSW,247,0.0,0.0,69,0.00,,,0.12,WUHU21623XXSP,2013-09-18 22:19:00,
2013-09-18 17:24:00,77.4,66.4,29.88,SSE,157,0.7,0.7,69,0.00,,,0.12,WUHU21623XXSP,2013-09-18 22:24:00,
2013-09-18 17:29:00,77.2,65.8,29.88,SSE,157,0.0,0.9,68,0.00,,,0.12,WUHU21623XXSP,2013-09-18 22:29:00,
2013-09-18 17:34:00,77.2,65.8,29.88,SSE,157,1.1,4.5,68,0.00,,,0.12,WUHU21623XXSP,2013-09-18 22:34:00,
2013-09-18 17:39:00,77.2,65.8,29.88,SSW,202,0.0,4.5,68,0.00,,,0.12,WUHU21623XXSP,2013-09-18 22:39:00,
2013-09-18 17:44:00,77.2,66.3,29.88,South,180,0.0,3.4,69,0.00,,,0.12,WUHU21623XXSP,2013-09-18 22:44:00,
2013-09-18 17:49:00,77.2,66.3,29.88,SE,135,0.0,3.4,69,0.00,,,0.12,WUHU21623XXSP,2013-09-18 22:49:00,
2013-09-18 17:54:00,77.0,66.1,29.88,ESE,112,0.0,0.0,69,0.00,,,0.12,WUHU21623XXSP,2013-09-18 22:54:00,
2013-09-18 17:59:00,77.0,66.1,29.87,South,180,0.0,3.4,69,0.00,,,0.12,WUHU21623XXSP,2013-09-18 22:59:00,
2013-09-18 18:04:00,77.0,66.6,29.87,SE,135,0.0,3.4,70,0.00,,,0.12,WUHU21623XXSP,2013-09-18 23:04:00,
2013-09-18 18:09:00,76.8,66.4,29.87,SE,135,0.0,1.6,70,0.00,,,0.12,WUHU21623XXSP,2013-09-18 23:09:00,
2013-09-18 18:14:00,76.8,66.4,29.87,SSE,157,0.0,0.0,70,0.00,,,0.12,WUHU21623XXSP,2013-09-18 23:14:00,
2013-09-18 18:19:00,76.6,66.2,29.88,SE,135,0.0,0.0,70,0.00,,,0.12,WUHU21623XXSP,2013-09-18 23:19:00,
2013-09-18 18:24:00,76.6,66.2,29.87,South,180,0.0,0.0,70,0.00,,,0.12,WUHU21623XXSP,2013-09-18 23:24:00,
2013-09-18 18:29:00,76.5,66.4,29.87,SE,135,0.0,0.9,71,0.00,,,0.12,WUHU21623XXSP,2013-09-18 23:29:00,
2013-09-18 18:34:00,76.5,66.4,29.87,East,90,0.0,0.9,71,0.00,,,0.12,WUHU21623XXSP,2013-09-18 23:34:00,
2013-09-18 18:39:00,76.5,66.4,29.88,South,180,0.0,0.0,71,0.00,,,0.12,WUHU21623XXSP,2013-09-18 23:39:00,
2013-09-18 18:44:00,76.1,66.0,29.88,South,180,0.0,0.0,71,0.00,,,0.12,WUHU21623XXSP,2013-09-18 23:44:00,
2013-09-18 18:49:00,76.1,66.8,29.88,ESE,112,0.0,0.0,73,0.00,,,0.12,WUHU21623XXSP,2013-09-18 23:49:00,
2013-09-18 18:54:00,75.9,66.6,29.87,SSE,157,0.0,0.0,73,0.00,,,0.12,WUHU21623XXSP,2013-09-18 23:54:00,
2013-09-18 18:59:00,75.6,66.3,29.87,ESE,112,0.0,0.0,73,0.00,,,0.12,WUHU21623XXSP,2013-09-18 23:59:00,
2013-09-18 19:04:00,75.4,66.1,29.87,SSW,202,0.0,0.0,73,0.00,,,0.12,WUHU21623XXSP,2013-09-19 00:04:00,
2013-09-18 19:09:00,75.4,66.1,29.87,SE,135,0.0,0.0,73,0.00,,,0.12,WUHU21623XXSP,2013-09-19 00:09:00,
2013-09-18 19:14:00,75.0,66.2,29.87,SSE,157,0.0,0.0,74,0.00,,,0.12,WUHU21623XXSP,2013-09-19 00:14:00,
2013-09-18 19:19:00,74.8,66.0,29.87,SE,135,0.0,0.0,74,0.00,,,0.12,WUHU21623XXSP,2013-09-19 00:19:00,
2013-09-18 19:24:00,74.7,65.8,29.88,SE,135,0.0,0.0,74,0.00,,,0.12,WUHU21623XXSP,2013-09-19 00:24:00,
2013-09-18 19:29:00,74.7,66.2,29.88,SSW,202,0.0,0.0,75,0.00,,,0.12,WUHU21623XXSP,2013-09-19 00:29:00,
2013-09-18 19:34:00,74.3,65.9,29.88,SE,135,0.0,0.0,75,0.00,,,0.12,WUHU21623XXSP,2013-09-19 00:34:00,
2013-09-18 19:39:00,74.3,65.9,29.88,South,180,0.0,0.0,75,0.00,,,0.12,WUHU21623XXSP,2013-09-19 00:39:00,
2013-09-18 19:44:00,74.3,66.3,29.88,SE,135,0.0,0.0,76,0.00,,,0.12,WUHU21623XXSP,2013-09-19 00:44:00,
2013-09-18 19:49:00,74.3,66.7,29.88,South,180,0.0,0.0,77,0.00,,,0.12,WUHU21623XXSP,2013-09-19 00:49:00,
2013-09-18 19:54:00,74.1,66.1,29.88,SE,135,0.9,0.9,76,0.00,,,0.12,WUHU21623XXSP,2013-09-19 00:54:00,
2013-09-18 19:59:00,74.1,66.3,29.89,SE,135,0.0,0.9,78,0.00,,,0.12,WUHU21623XXSP,2013-09-19 00:59:00,
2013-09-18 20:04:00,73.9,66.7,29.89,ESE,112,0.0,0.0,78,0.00,,,0.12,WUHU21623XXSP,2013-09-19 01:04:00,
2013-09-18 20:09:00,73.8,66.5,29.89,SSE,157,0.0,0.0,78,0.00,,,0.12,WUHU21623XXSP,2013-09-19 01:09:00,
2013-09-18 20:14:00,73.8,66.5,29.88,SSE,157,0.0,0.0,78,0.00,,,0.12,WUHU21623XXSP,2013-09-19 01:14:00,
2013-09-18 20:19:00,73.6,66.3,29.88,SE,135,0.0,0.0,78,0.00,,,0.12,WUHU21623XXSP,2013-09-19 01:19:00,
2013-09-18 20:24:00,73.6,66.7,29.89,ESE,112,0.7,0.7,79,0.00,,,0.12,WUHU21623XXSP,2013-09-19 01:24:00,
2013-09-18 20:29:00,73.4,66.5,29.89,SSW,202,0.0,0.7,79,0.00,,,0.12,WUHU21623XXSP,2013-09-19 01:29:00,
2013-09-18 20:34:00,73.6,66.5,29.89,ESE,112,0.0,0.0,79,0.00,,,0.12,WUHU21623XXSP,2013-09-19 01:34:00,
2013-09-18 20:39:00,73.2,66.4,29.89,ESE,112,0.0,0.0,79,0.00,,,0.12,WUHU21623XXSP,2013-09-19 01:39:00,
2013-09-18 20:44:00,73.2,66.4,29.89,South,180,0.0,0.0,79,0.00,,,0.12,WUHU21623XXSP,2013-09-19 01:44:00,
2013-09-18 20:49:00,73.0,66.6,29.89,South,180,0.0,0.0,80,0.00,,,0.12,WUHU21623XXSP,2013-09-19 01:49:00,
2013-09-18 20:54:00,73.0,66.6,29.89,South,180,0.0,0.0,80,0.00,,,0.12,WUHU21623XXSP,2013-09-19 01:54:00,
2013-09-18 20:59:00,73.0,66.6,29.89,SSW,202,1.8,1.8,80,0.00,,,0.12,WUHU21623XXSP,2013-09-19 01:59:00,
2013-09-18 21:04:00,73.2,66.7,29.89,SE,135,0.0,1.8,80,0.00,,,0.12,WUHU21623XXSP,2013-09-19 02:04:00,
2013-09-18 21:09:00,73.2,66.7,29.90,SSW,202,0.7,0.7,80,0.00,,,0.12,WUHU21623XXSP,2013-09-19 02:09:00,
2013-09-18 21:14:00,73.0,66.6,29.90,South,180,0.0,0.7,80,0.00,,,0.12,WUHU21623XXSP,2013-09-19 02:14:00,
2013-09-18 21:19:00,73.0,66.7,29.90,SSE,157,0.0,0.0,80,0.00,,,0.12,WUHU21623XXSP,2013-09-19 02:19:00,
2013-09-18 21:24:00,73.0,66.6,29.89,SSE,157,0.0,1.8,80,0.00,,,0.12,WUHU21623XXSP,2013-09-19 02:24:00,
2013-09-18 21:29:00,73.0,66.6,29.89,SE,135,0.0,1.8,80,0.00,,,0.12,WUHU21623XXSP,2013-09-19 02:29:00,
2013-09-18 21:34:00,73.0,66.6,29.89,SSE,157,0.0,0.0,80,0.00,,,0.12,WUHU21623XXSP,2013-09-19 02:34:00,
2013-09-18 21:39:00,73.0,66.6,29.89,SSE,157,0.0,0.0,80,0.00,,,0.12,WUHU21623XXSP,2013-09-19 02:39:00,
2013-09-18 21:44:00,73.0,66.9,29.89,South,180,0.0,0.0,81,0.00,,,0.12,WUHU21623XXSP,2013-09-19 02:44:00,
2013-09-18 21:49:00,73.0,66.9,29.89,SSE,157,0.0,0.0,81,0.00,,,0.12,WUHU21623XXSP,2013-09-19 02:49:00,
2013-09-18 21:54:00,73.0,66.9,29.89,SSE,157,0.0,0.0,81,0.00,,,0.12,WUHU21623XXSP,2013-09-19 02:54:00,
2013-09-18 22:00:00,73.0,66.9,29.90,SE,135,0.0,0.0,81,0.00,,,0.12,WUHU21623XXSP,2013-09-19 03:00:00,
2013-09-18 22:05:00,73.0,66.9,29.90,SE,135,0.0,1.8,81,0.00,,,0.12,WUHU21623XXSP,2013-09-19 03:05:00,
2013-09-18 22:10:00,72.9,66.7,29.89,South,180,0.0,1.8,81,0.00,,,0.12,WUHU21623XXSP,2013-09-19 03:10:00,
2013-09-18 22:15:00,73.0,66.9,29.90,SSE,157,0.0,0.0,81,0.00,,,0.12,WUHU21623XXSP,2013-09-19 03:15:00,
2013-09-18 22:20:00,73.0,66.9,29.89,SSE,157,0.0,0.0,81,0.00,,,0.12,WUHU21623XXSP,2013-09-19 03:20:00,
2013-09-18 22:25:00,72.9,66.7,29.89,SE,135,0.0,2.9,81,0.00,,,0.12,WUHU21623XXSP,2013-09-19 03:25:00,
2013-09-18 22:30:00,72.9,66.4,29.89,SE,135,0.0,2.9,80,0.00,,,0.12,WUHU21623XXSP,2013-09-19 03:30:00,
2013-09-18 22:35:00,72.9,66.7,29.89,SSW,202,0.0,1.3,81,0.00,,,0.12,WUHU21623XXSP,2013-09-19 03:35:00,
2013-09-18 22:40:00,72.9,66.7,29.89,East,90,0.0,1.3,81,0.00,,,0.12,WUHU21623XXSP,2013-09-19 03:40:00,
2013-09-18 22:45:00,72.9,66.7,29.89,SSE,157,0.7,1.3,81,0.00,,,0.12,WUHU21623XXSP,2013-09-19 03:45:00,
2013-09-18 22:50:00,72.7,66.5,29.89,South,180,0.7,1.3,81,0.00,,,0.12,WUHU21623XXSP,2013-09-19 03:50:00,
2013-09-18 22:55:00,72.7,66.5,29.89,SSW,202,0.0,0.7,81,0.00,,,0.12,WUHU21623XXSP,2013-09-19 03:55:00,
2013-09-18 23:00:00,72.5,66.4,29.89,South,180,0.0,0.7,81,0.00,,,0.12,WUHU21623XXSP,2013-09-19 04:00:00,
2013-09-18 23:01:00,72.5,66.4,29.89,South,180,0.0,0.7,81,0.00,,,0.12,WUHU21623XXSP,2013-09-19 04:01:00,
2013-09-18 23:02:00,72.7,66.5,29.89,South,180,0.0,0.0,81,0.00,,,0.12,WUHU21623XXSP,2013-09-19 04:02:00,
2013-09-18 23:07:00,72.5,66.4,29.89,South,180,0.0,0.0,81,0.00,,,0.12,WUHU21623XXSP,2013-09-19 04:07:00,
2013-09-18 23:08:00,72.5,66.4,29.89,South,180,0.0,0.0,81,0.00,,,0.12,WUHU21623XXSP,2013-09-19 04:08:00,
2013-09-18 23:13:00,72.5,66.4,29.90,South,180,0.0,0.0,81,0.00,,,0.12,WUHU21623XXSP,2013-09-19 04:13:00,
2013-09-18 23:18:00,72.5,66.4,29.90,SSE,157,0.0,0.0,81,0.00,,,0.12,WUHU21623XXSP,2013-09-19 04:18:00,
2013-09-18 23:23:00,72.5,67.0,29.90,SSE,157,0.0,0.0,83,0.00,,,0.12,WUHU21623XXSP,2013-09-19 04:23:00,
2013-09-18 23:28:00,72.5,66.4,29.90,SSE,157,0.0,0.0,81,0.00,,,0.12,WUHU21623XXSP,2013-09-19 04:28:00,
2013-09-18 23:33:00,72.5,66.7,29.90,SSE,157,0.0,0.0,82,0.00,,,0.12,WUHU21623XXSP,2013-09-19 04:33:00,
2013-09-18 23:38:00,72.5,66.7,29.90,SSE,157,0.0,0.0,82,0.00,,,0.12,WUHU21623XXSP,2013-09-19 04:38:00,
2013-09-18 23:43:00,72.5,66.7,29.90,SSE,157,0.2,0.2,82,0.00,,,0.12,WUHU21623XXSP,2013-09-19 04:43:00,
2013-09-18 23:48:00,72.5,66.7,29.90,SSE,157,0.0,0.2,82,0.00,,,0.12,WUHU21623XXSP,2013-09-19 04:48:00,
2013-09-18 23:53:00,72.5,66.7,29.90,SSW,202,0.0,0.0,82,0.00,,,0.12,WUHU21623XXSP,2013-09-19 04:53:00,
2013-09-18 23:58:00,72.5,67.4,29.90,ENE,67,0.0,0.0,84,0.00,,,0.12,WUHU21623XXSP,2013-09-19 04:58:00,